Time;durP1;ratioP1;P1;durP2;ratioP2;P2;SDS_P1;SDS_P2;PMS_P1;PMS_P2;Temp;Humidity;BMP_temperature;BMP_pressure;BME280_temperature;BME280_humidity;BME280_pressure;Samples;Min_cycle;Max_cycle;Signal;HPM_P1;HPM_P2
2022/05/11 00:00:01;;;;;;;;;;;18.00;65.80;;;;;;4935833;29;20379;-65
2022/05/11 00:02:26;;;;;;;;;;;18.00;65.60;;;;;;4936221;29;19949;-62
2022/05/11 00:04:52;;;;;;;;;;;18.10;65.40;;;;;;4936021;29;20374;-61
2022/05/11 00:07:17;;;;;;;;;;;18.20;65.70;;;;;;4936123;29;19919;-61
2022/05/11 00:09:43;;;;;;;;;;;18.10;66.10;;;;;;4936449;29;19934;-64
2022/05/11 00:12:09;;;;;;;;;;;18.00;66.60;;;;;;4936361;29;19911;-60
2022/05/11 00:14:35;;;;;;;;;;;18.00;67.30;;;;;;4936320;29;19919;-61
2022/05/11 00:17:00;;;;;;;;;;;18.00;67.60;;;;;;4936239;29;19911;-63
2022/05/11 00:19:27;;;;;;;;;;;17.90;67.30;;;;;;4936285;29;19911;-65
2022/05/11 00:21:53;;;;;;;;;;;17.90;67.30;;;;;;4936166;29;19911;-61
2022/05/11 00:24:18;;;;;;;;;;;17.90;67.90;;;;;;4935970;29;19925;-61
2022/05/11 00:26:44;;;;;;;;;;;17.90;67.30;;;;;;4935945;29;19919;-61
2022/05/11 00:29:10;;;;;;;;;;;17.90;68.30;;;;;;4935859;29;19918;-63
2022/05/11 00:31:35;;;;;;;;;;;17.90;67.90;;;;;;4934276;29;19911;-63
2022/05/11 00:34:01;;;;;;;;;;;17.90;68.00;;;;;;4935663;29;19911;-65
2022/05/11 00:36:26;;;;;;;;;;;17.80;68.40;;;;;;4935614;29;19970;-64
2022/05/11 00:38:52;;;;;;;;;;;17.80;68.70;;;;;;4935524;29;19923;-67
2022/05/11 00:41:18;;;;;;;;;;;17.80;67.20;;;;;;4935461;29;19918;-66
2022/05/11 00:43:52;;;;;;;;;;;17.90;68.00;;;;;;4935619;29;20014;-67
2022/05/11 00:46:21;;;;;;;;;;;18.00;67.90;;;;;;4935757;29;19939;-66
2022/05/11 00:51:37;;;;;;;;;;;17.70;69.10;;;;;;4936205;29;19921;-65
2022/05/11 00:54:03;;;;;;;;;;;17.60;69.90;;;;;;4936197;29;20364;-65
2022/05/11 00:56:29;;;;;;;;;;;17.50;70.10;;;;;;4936121;29;20045;-65
2022/05/11 00:58:56;;;;;;;;;;;17.70;69.60;;;;;;4935906;29;20346;-65
2022/05/11 01:01:22;;;;;;;;;;;17.60;69.30;;;;;;4935471;29;19911;-65
2022/05/11 01:03:51;;;;;;;;;;;17.60;69.50;;;;;;4935744;29;20354;-64
2022/05/11 01:06:17;;;;;;;;;;;17.60;69.80;;;;;;4935639;29;20282;-67
2022/05/11 01:08:43;;;;;;;;;;;17.50;70.40;;;;;;4935823;29;19910;-66
2022/05/11 01:11:09;;;;;;;;;;;17.50;70.20;;;;;;4935923;29;20260;-66
2022/05/11 01:13:36;;;;;;;;;;;17.50;70.30;;;;;;4938930;29;19933;-66
2022/05/11 01:16:02;;;;;;;;;;;17.50;70.50;;;;;;4939277;29;19934;-65
2022/05/11 01:18:28;;;;;;;;;;;17.40;70.80;;;;;;4939339;29;20367;-66
2022/05/11 01:20:54;;;;;;;;;;;17.30;71.30;;;;;;4939130;29;19911;-67
2022/05/11 01:23:24;;;;;;;;;;;17.30;71.70;;;;;;4938892;29;19918;-67
2022/05/11 01:25:50;;;;;;;;;;;17.10;72.50;;;;;;4938685;29;19965;-66
2022/05/11 01:28:17;;;;;;;;;;;17.10;72.20;;;;;;4938765;29;20009;-65
2022/05/11 01:30:45;;;;;;;;;;;17.10;72.10;;;;;;4938616;29;19910;-67
2022/05/11 01:33:15;;;;;;;;;;;17.10;71.60;;;;;;4938836;29;19918;-66
2022/05/11 01:35:45;;;;;;;;;;;17.20;71.00;;;;;;4938444;29;19918;-66
2022/05/11 01:38:29;;;;;;;;;;;17.20;70.60;;;;;;4938605;29;19923;-66
2022/05/11 01:40:55;;;;;;;;;;;17.10;71.40;;;;;;4938563;29;20005;-66
2022/05/11 01:43:26;;;;;;;;;;;17.10;71.90;;;;;;4938715;29;20371;-66
2022/05/11 01:45:52;;;;;;;;;;;17.00;72.30;;;;;;4938395;29;19941;-66
2022/05/11 01:48:17;;;;;;;;;;;17.10;70.80;;;;;;4938711;29;20303;-66
2022/05/11 01:50:43;;;;;;;;;;;17.10;71.00;;;;;;4938598;29;19918;-65
2022/05/11 01:53:10;;;;;;;;;;;17.10;71.60;;;;;;4938395;29;19911;-66
2022/05/11 01:55:35;;;;;;;;;;;16.90;71.60;;;;;;4938508;29;19946;-65
2022/05/11 01:58:02;;;;;;;;;;;16.90;72.10;;;;;;4938420;29;19950;-66
2022/05/11 02:00:27;;;;;;;;;;;16.80;72.70;;;;;;4938468;29;20009;-66
2022/05/11 02:02:53;;;;;;;;;;;16.80;72.90;;;;;;4938246;29;20013;-65
2022/05/11 02:08:03;;;;;;;;;;;16.80;73.70;;;;;;4938188;29;20286;-65
2022/05/11 02:10:28;;;;;;;;;;;16.70;73.30;;;;;;4938200;29;19911;-66
2022/05/11 02:12:57;;;;;;;;;;;16.70;73.40;;;;;;4938135;29;19911;-66
2022/05/11 02:15:23;;;;;;;;;;;16.70;73.60;;;;;;4937990;29;19961;-65
2022/05/11 02:17:48;;;;;;;;;;;16.60;73.50;;;;;;4938098;29;19911;-65
2022/05/11 02:20:16;;;;;;;;;;;16.60;73.80;;;;;;4937941;29;19911;-65
2022/05/11 02:22:42;;;;;;;;;;;16.50;73.80;;;;;;4937891;29;20014;-66
2022/05/11 02:25:08;;;;;;;;;;;16.50;73.70;;;;;;4938038;29;20375;-64
2022/05/11 02:27:33;;;;;;;;;;;16.40;73.10;;;;;;4938039;29;19922;-63
2022/05/11 02:29:59;;;;;;;;;;;16.40;73.90;;;;;;4937909;29;20435;-62
2022/05/11 02:32:25;;;;;;;;;;;16.40;74.10;;;;;;4938011;29;19958;-65
2022/05/11 02:37:35;;;;;;;;;;;16.30;74.20;;;;;;4937773;29;19970;-64
2022/05/11 02:40:01;;;;;;;;;;;16.30;73.40;;;;;;4938690;29;19915;-66
2022/05/11 02:42:27;;;;;;;;;;;16.50;73.30;;;;;;4937946;29;20050;-66
2022/05/11 02:44:52;;;;;;;;;;;16.40;73.20;;;;;;4937599;29;20065;-66
2022/05/11 02:47:18;;;;;;;;;;;16.40;73.30;;;;;;4937613;29;19919;-67
2022/05/11 02:49:45;;;;;;;;;;;16.40;72.60;;;;;;4937394;29;19911;-64
2022/05/11 02:52:11;;;;;;;;;;;16.40;73.10;;;;;;4937496;29;19918;-67
2022/05/11 02:54:36;;;;;;;;;;;16.40;73.30;;;;;;4937225;29;19910;-63
2022/05/11 02:57:02;;;;;;;;;;;16.30;73.80;;;;;;4937289;29;19911;-65
2022/05/11 02:59:28;;;;;;;;;;;16.30;73.80;;;;;;4937336;29;20422;-66
2022/05/11 03:01:56;;;;;;;;;;;16.30;73.60;;;;;;4937552;29;19933;-64
2022/05/11 03:04:22;;;;;;;;;;;16.30;73.10;;;;;;4936883;29;19915;-67
2022/05/11 03:06:47;;;;;;;;;;;16.40;72.80;;;;;;4936884;29;20045;-66
2022/05/11 03:09:14;;;;;;;;;;;16.50;72.30;;;;;;4937387;29;19965;-64
2022/05/11 03:11:40;;;;;;;;;;;16.60;71.40;;;;;;4937416;29;19911;-64
2022/05/11 03:14:06;;;;;;;;;;;16.70;71.10;;;;;;4936714;29;19917;-64
2022/05/11 03:16:32;;;;;;;;;;;16.70;70.90;;;;;;4936970;29;20314;-64
2022/05/11 03:18:59;;;;;;;;;;;16.90;70.20;;;;;;4936897;29;20410;-64
2022/05/11 03:21:25;;;;;;;;;;;16.90;69.70;;;;;;4936932;29;19922;-64
2022/05/11 03:23:50;;;;;;;;;;;16.90;69.70;;;;;;4936542;29;19911;-66
2022/05/11 03:26:16;;;;;;;;;;;16.90;69.70;;;;;;4935061;29;19915;-64
2022/05/11 03:28:41;;;;;;;;;;;16.90;69.80;;;;;;4936769;29;19919;-65
2022/05/11 03:31:07;;;;;;;;;;;16.90;69.50;;;;;;4936414;29;19921;-66
2022/05/11 03:36:17;;;;;;;;;;;16.90;69.60;;;;;;4936106;29;19918;-64
2022/05/11 03:38:42;;;;;;;;;;;16.90;69.70;;;;;;4936344;29;19923;-66
2022/05/11 03:41:08;;;;;;;;;;;16.90;69.40;;;;;;4936594;29;19911;-66
2022/05/11 03:43:33;;;;;;;;;;;17.00;69.20;;;;;;4936318;29;19921;-65
2022/05/11 03:45:59;;;;;;;;;;;16.90;69.50;;;;;;4936433;29;19922;-68
2022/05/11 03:48:25;;;;;;;;;;;17.00;69.30;;;;;;4936413;29;19915;-64
2022/05/11 03:50:51;;;;;;;;;;;17.10;69.40;;;;;;4936557;29;19915;-66
2022/05/11 03:53:16;;;;;;;;;;;17.10;68.80;;;;;;4936714;29;19918;-64
2022/05/11 03:55:42;;;;;;;;;;;17.20;68.40;;;;;;4936298;29;19911;-64
2022/05/11 03:58:08;;;;;;;;;;;17.20;68.50;;;;;;4936448;29;20438;-66
2022/05/11 04:00:33;;;;;;;;;;;17.20;68.30;;;;;;4936296;29;19915;-66
2022/05/11 04:02:59;;;;;;;;;;;17.10;69.00;;;;;;4936171;29;19918;-67
2022/05/11 04:05:24;;;;;;;;;;;17.10;69.00;;;;;;4936141;29;19965;-66
2022/05/11 04:07:50;;;;;;;;;;;17.20;68.20;;;;;;4936440;29;20230;-65
2022/05/11 04:10:17;;;;;;;;;;;17.30;67.90;;;;;;4936430;29;19921;-66
2022/05/11 04:12:43;;;;;;;;;;;17.30;68.00;;;;;;4936567;29;19917;-67
2022/05/11 04:15:09;;;;;;;;;;;17.20;68.50;;;;;;4936257;29;20306;-62
2022/05/11 04:17:35;;;;;;;;;;;17.10;69.20;;;;;;4918947;29;20409;-65
2022/05/11 04:20:01;;;;;;;;;;;17.10;69.30;;;;;;4936283;29;19911;-65
2022/05/11 04:22:26;;;;;;;;;;;17.30;68.70;;;;;;4936176;29;19918;-67
2022/05/11 04:24:52;;;;;;;;;;;17.20;68.50;;;;;;4936136;29;19914;-63
2022/05/11 04:27:18;;;;;;;;;;;17.20;68.90;;;;;;4936051;29;19950;-61
2022/05/11 04:29:43;;;;;;;;;;;17.30;68.70;;;;;;4936081;29;20370;-65
2022/05/11 04:32:10;;;;;;;;;;;17.30;68.60;;;;;;4936183;29;19910;-61
2022/05/11 04:34:38;;;;;;;;;;;17.40;68.00;;;;;;4936156;29;19918;-60
2022/05/11 04:37:03;;;;;;;;;;;17.60;67.70;;;;;;4935940;29;19969;-61
2022/05/11 04:39:30;;;;;;;;;;;17.50;67.70;;;;;;4936218;29;20386;-58
2022/05/11 04:41:55;;;;;;;;;;;17.70;69.90;;;;;;4936281;29;20278;-57
2022/05/11 04:44:21;;;;;;;;;;;17.90;67.80;;;;;;4936051;29;19911;-58
2022/05/11 04:46:47;;;;;;;;;;;18.10;68.50;;;;;;4938512;29;19915;-59
2022/05/11 04:49:21;;;;;;;;;;;18.10;67.50;;;;;;4939852;29;19946;-56
2022/05/11 04:51:48;;;;;;;;;;;18.20;66.80;;;;;;4939717;29;19914;-57
2022/05/11 04:54:14;;;;;;;;;;;18.20;67.70;;;;;;4939541;29;20354;-58
2022/05/11 04:56:39;;;;;;;;;;;18.40;68.70;;;;;;4939472;29;19918;-57
2022/05/11 04:59:05;;;;;;;;;;;18.50;67.50;;;;;;4939660;29;19911;-57
2022/05/11 05:01:31;;;;;;;;;;;18.50;66.20;;;;;;4939465;29;19922;-57
2022/05/11 05:03:56;;;;;;;;;;;18.40;66.90;;;;;;4939411;29;19918;-56
2022/05/11 05:06:22;;;;;;;;;;;18.30;67.90;;;;;;4939511;29;19943;-56
2022/05/11 05:08:48;;;;;;;;;;;18.30;67.60;;;;;;4939191;29;19915;-57
2022/05/11 05:11:13;;;;;;;;;;;18.20;68.30;;;;;;4939288;29;19917;-56
2022/05/11 05:13:39;;;;;;;;;;;18.20;67.70;;;;;;4938993;29;20374;-64
2022/05/11 05:16:04;;;;;;;;;;;18.40;67.90;;;;;;4939416;29;19911;-59
2022/05/11 05:18:32;;;;;;;;;;;18.30;67.70;;;;;;4947541;29;19911;-61
2022/05/11 05:20:58;;;;;;;;;;;18.40;69.00;;;;;;4958196;29;20690;-60
2022/05/11 05:23:24;;;;;;;;;;;18.30;69.30;;;;;;4958481;29;19911;-59
2022/05/11 05:25:50;;;;;;;;;;;18.30;69.40;;;;;;4958084;29;19911;-61
2022/05/11 05:31:09;;;;;;;;;;;18.30;70.50;;;;;;4958396;29;19917;-62
2022/05/11 05:33:35;;;;;;;;;;;18.40;70.70;;;;;;4957877;29;20351;-63
2022/05/11 05:36:04;;;;;;;;;;;18.20;71.70;;;;;;4958123;29;19994;-63
2022/05/11 05:38:29;;;;;;;;;;;18.30;71.60;;;;;;4957871;29;20418;-60
2022/05/11 05:40:55;;;;;;;;;;;18.60;73.00;;;;;;4957766;29;19960;-59
2022/05/11 05:43:21;;;;;;;;;;;18.80;72.10;;;;;;4957683;29;19914;-57
2022/05/11 05:45:48;;;;;;;;;;;18.90;71.00;;;;;;4957491;29;19978;-59
2022/05/11 05:48:13;;;;;;;;;;;19.20;71.50;;;;;;4957712;29;19969;-61
2022/05/11 05:50:39;;;;;;;;;;;19.60;70.90;;;;;;4957878;29;20303;-59
2022/05/11 05:53:04;;;;;;;;;;;20.10;69.20;;;;;;4957837;29;20441;-61
2022/05/11 05:55:30;;;;;;;;;;;20.70;68.00;;;;;;4940221;29;19910;-60
2022/05/11 05:57:55;;;;;;;;;;;21.30;65.70;;;;;;4957140;28;19914;-61
2022/05/11 06:00:21;;;;;;;;;;;21.80;64.60;;;;;;4940191;29;20263;-60
2022/05/11 06:02:46;;;;;;;;;;;22.20;63.30;;;;;;4957487;29;19910;-59
2022/05/11 06:05:15;;;;;;;;;;;22.40;62.10;;;;;;4957261;29;20069;-59
2022/05/11 06:07:41;;;;;;;;;;;22.80;61.70;;;;;;4957481;29;20005;-60
2022/05/11 06:10:07;;;;;;;;;;;23.10;60.20;;;;;;4957259;29;19993;-60
2022/05/11 06:12:32;;;;;;;;;;;23.40;59.10;;;;;;4957006;29;20329;-59
2022/05/11 06:14:58;;;;;;;;;;;23.60;58.20;;;;;;4957067;29;19914;-60
2022/05/11 06:17:23;;;;;;;;;;;23.70;58.00;;;;;;4957103;29;19918;-60
2022/05/11 06:19:50;;;;;;;;;;;23.90;57.30;;;;;;4957239;29;19917;-60
2022/05/11 06:22:15;;;;;;;;;;;24.10;57.20;;;;;;4956891;29;19918;-60
2022/05/11 06:24:41;;;;;;;;;;;24.20;57.00;;;;;;4956776;29;19918;-61
2022/05/11 06:27:07;;;;;;;;;;;24.30;57.10;;;;;;4956895;29;19973;-60
2022/05/11 06:29:33;;;;;;;;;;;24.50;56.10;;;;;;4957310;29;20001;-61
2022/05/11 06:31:58;;;;;;;;;;;24.60;55.60;;;;;;4958963;29;20345;-61
2022/05/11 06:34:25;;;;;;;;;;;24.70;54.40;;;;;;4957928;29;19911;-61
2022/05/11 06:36:51;;;;;;;;;;;24.80;54.60;;;;;;4959408;29;19917;-60
2022/05/11 06:39:16;;;;;;;;;;;24.90;53.40;;;;;;4958578;29;19923;-60
2022/05/11 06:41:42;;;;;;;;;;;25.00;51.40;;;;;;4957110;29;19914;-61
2022/05/11 06:44:08;;;;;;;;;;;25.10;50.00;;;;;;4956522;29;19915;-60
2022/05/11 06:46:34;;;;;;;;;;;25.10;48.70;;;;;;4956901;29;20001;-63
2022/05/11 06:48:59;;;;;;;;;;;25.20;48.60;;;;;;4956644;29;20004;-61
2022/05/11 06:51:25;;;;;;;;;;;25.30;49.80;;;;;;4956726;29;19910;-62
2022/05/11 06:59:26;;;;;;;;;;;25.60;49.10;;;;;;4956789;29;20001;-61
2022/05/11 07:01:52;;;;;;;;;;;25.60;48.30;;;;;;4956560;29;19910;-62
2022/05/11 07:04:22;;;;;;;;;;;25.60;48.70;;;;;;4956336;29;20399;-60
2022/05/11 07:06:48;;;;;;;;;;;25.80;48.40;;;;;;4956364;29;19925;-61
2022/05/11 07:09:13;;;;;;;;;;;25.80;47.00;;;;;;4955304;28;19915;-60
2022/05/11 07:14:24;;;;;;;;;;;25.90;45.70;;;;;;4956212;29;19917;-61
2022/05/11 07:16:49;;;;;;;;;;;25.90;46.00;;;;;;4955996;29;19910;-61
2022/05/11 07:19:15;;;;;;;;;;;26.00;46.70;;;;;;4955747;29;20001;-62
2022/05/11 07:21:40;;;;;;;;;;;26.00;46.80;;;;;;4955740;29;19949;-67
2022/05/11 07:24:06;;;;;;;;;;;26.10;48.30;;;;;;4955518;29;19917;-67
2022/05/11 07:26:32;;;;;;;;;;;26.10;47.50;;;;;;4956069;29;19966;-69
2022/05/11 07:28:57;;;;;;;;;;;26.20;47.00;;;;;;4956589;29;20405;-67
2022/05/11 07:31:23;;;;;;;;;;;26.20;46.20;;;;;;4955885;29;20278;-65
2022/05/11 07:33:48;;;;;;;;;;;26.30;46.20;;;;;;4956502;29;19910;-66
2022/05/11 07:36:14;;;;;;;;;;;26.30;47.00;;;;;;4955524;29;20012;-67
2022/05/11 07:38:40;;;;;;;;;;;26.20;46.80;;;;;;4955270;29;19977;-68
2022/05/11 07:41:06;;;;;;;;;;;26.20;47.00;;;;;;4938601;29;20324;-69
2022/05/11 07:43:32;;;;;;;;;;;26.20;48.00;;;;;;4938588;29;19921;-68
2022/05/11 07:45:57;;;;;;;;;;;26.20;48.00;;;;;;4955689;29;19915;-64
2022/05/11 07:48:23;;;;;;;;;;;26.30;47.60;;;;;;4955679;29;19921;-62
2022/05/11 07:50:49;;;;;;;;;;;26.20;47.00;;;;;;4955769;29;19910;-63
2022/05/11 07:53:15;;;;;;;;;;;26.20;46.80;;;;;;4955433;29;19911;-65
2022/05/11 07:55:41;;;;;;;;;;;26.20;47.70;;;;;;4955256;29;19957;-70
2022/05/11 08:00:53;;;;;;;;;;;26.10;46.70;;;;;;4955613;29;20023;-64
2022/05/11 08:03:18;;;;;;;;;;;26.10;48.00;;;;;;4955503;29;20437;-61
2022/05/11 08:05:44;;;;;;;;;;;26.10;46.80;;;;;;4954748;29;20449;-65
2022/05/11 08:08:10;;;;;;;;;;;26.10;46.60;;;;;;4954764;29;20347;-59
2022/05/11 08:10:43;;;;;;;;;;;26.00;46.70;;;;;;4955308;29;19961;-65
2022/05/11 08:13:09;;;;;;;;;;;26.10;46.80;;;;;;4938050;29;19911;-61
2022/05/11 08:15:36;;;;;;;;;;;26.00;47.10;;;;;;4955495;29;19965;-65
2022/05/11 08:18:04;;;;;;;;;;;26.00;46.80;;;;;;4955536;29;19914;-65
2022/05/11 08:20:32;;;;;;;;;;;26.00;47.10;;;;;;4955686;28;19914;-62
2022/05/11 08:22:58;;;;;;;;;;;26.00;47.40;;;;;;4959103;29;19922;-58
2022/05/11 08:28:27;;;;;;;;;;;26.00;47.20;;;;;;4959213;29;19974;-61
2022/05/11 08:33:38;;;;;;;;;;;26.00;47.20;;;;;;4958944;29;19933;-64
2022/05/11 08:36:09;;;;;;;;;;;26.00;47.60;;;;;;4958914;29;19915;-61
2022/05/11 08:38:36;;;;;;;;;;;26.00;46.20;;;;;;4958871;29;20446;-63
2022/05/11 08:41:20;;;;;;;;;;;25.90;46.90;;;;;;4958901;29;19910;-61
2022/05/11 08:43:47;;;;;;;;;;;25.80;46.30;;;;;;4958916;29;19921;-66
2022/05/11 08:46:31;;;;;;;;;;;25.70;47.10;;;;;;4958975;29;20385;-62
2022/05/11 08:49:00;;;;;;;;;;;25.70;47.00;;;;;;4958855;29;19926;-63
2022/05/11 08:51:32;;;;;;;;;;;25.70;47.20;;;;;;4958813;29;19911;-62
2022/05/11 08:54:26;;;;;;;;;;;25.60;46.90;;;;;;4958672;29;19967;-67
2022/05/11 08:56:53;;;;;;;;;;;25.60;47.00;;;;;;4946148;29;19917;-63
2022/05/11 08:59:21;;;;;;;;;;;25.60;47.20;;;;;;4958752;29;20274;-60
2022/05/11 09:01:51;;;;;;;;;;;25.60;47.20;;;;;;4958405;29;19917;-66
2022/05/11 09:04:20;;;;;;;;;;;25.50;47.60;;;;;;4958526;29;19964;-64
2022/05/11 09:06:46;;;;;;;;;;;25.50;47.00;;;;;;4958406;29;19914;-65
2022/05/11 09:09:12;;;;;;;;;;;25.60;47.60;;;;;;4958258;29;20370;-65
2022/05/11 09:11:43;;;;;;;;;;;25.50;48.00;;;;;;4958509;29;19910;-59
2022/05/11 09:14:12;;;;;;;;;;;25.40;47.00;;;;;;4958387;29;19993;-59
2022/05/11 09:16:41;;;;;;;;;;;25.40;47.40;;;;;;4940956;29;19921;-60
2022/05/11 09:19:14;;;;;;;;;;;25.40;48.70;;;;;;4958380;29;19910;-63
2022/05/11 09:21:41;;;;;;;;;;;25.40;49.50;;;;;;4958085;29;19910;-61
2022/05/11 09:24:08;;;;;;;;;;;25.50;49.00;;;;;;4957881;29;20362;-63
2022/05/11 09:26:36;;;;;;;;;;;25.50;48.90;;;;;;4957897;29;19927;-61
2022/05/11 09:29:28;;;;;;;;;;;25.60;49.10;;;;;;4958139;29;20410;-64
2022/05/11 09:31:53;;;;;;;;;;;25.60;49.70;;;;;;4937012;29;20358;-61
2022/05/11 09:34:27;;;;;;;;;;;25.70;48.30;;;;;;4957293;29;19918;-60
2022/05/11 09:36:55;;;;;;;;;;;25.60;47.40;;;;;;4957881;29;20006;-65
2022/05/11 09:39:21;;;;;;;;;;;25.50;48.60;;;;;;4957806;29;19945;-69
2022/05/11 09:41:49;;;;;;;;;;;25.50;47.40;;;;;;4957868;29;20366;-66
2022/05/11 09:44:17;;;;;;;;;;;25.30;47.20;;;;;;4957564;29;19910;-67
2022/05/11 09:46:43;;;;;;;;;;;25.10;47.20;;;;;;4957826;29;19983;-67
2022/05/11 09:49:13;;;;;;;;;;;25.10;47.60;;;;;;4957807;29;19923;-67
2022/05/11 09:51:38;;;;;;;;;;;25.10;48.90;;;;;;4957730;29;20009;-67
2022/05/11 09:54:22;;;;;;;;;;;25.10;49.80;;;;;;4957294;29;20038;-68
2022/05/11 09:56:48;;;;;;;;;;;25.00;48.20;;;;;;4957733;29;19915;-66
2022/05/11 09:59:19;;;;;;;;;;;25.00;48.10;;;;;;4957902;29;19965;-66
2022/05/11 10:01:46;;;;;;;;;;;24.90;48.80;;;;;;4957342;29;20385;-66
2022/05/11 10:04:12;;;;;;;;;;;25.00;48.70;;;;;;4958069;29;19911;-63
2022/05/11 10:06:45;;;;;;;;;;;24.90;49.10;;;;;;4957487;29;19919;-67
2022/05/11 10:09:12;;;;;;;;;;;24.90;47.90;;;;;;4957679;29;19914;-64
2022/05/11 10:11:49;;;;;;;;;;;24.90;48.40;;;;;;4957477;29;19918;-65
2022/05/11 10:26:27;;;;;;;;;;;24.70;48.40;;;;;;4956999;29;20380;-60
2022/05/11 10:29:01;;;;;;;;;;;24.80;49.00;;;;;;4956874;29;20310;-60
2022/05/11 10:31:38;;;;;;;;;;;24.70;48.30;;;;;;4956891;29;19958;-65
2022/05/11 10:34:04;;;;;;;;;;;24.60;48.60;;;;;;4957070;29;20014;-59
2022/05/11 10:36:43;;;;;;;;;;;24.70;48.60;;;;;;4957072;29;19946;-65
2022/05/11 10:39:17;;;;;;;;;;;24.80;49.50;;;;;;4956768;29;19926;-64
2022/05/11 10:41:54;;;;;;;;;;;24.80;48.30;;;;;;4957279;29;19918;-64
2022/05/11 10:44:27;;;;;;;;;;;24.90;48.20;;;;;;4956525;28;20003;-64
2022/05/11 10:47:11;;;;;;;;;;;24.90;48.70;;;;;;4956755;29;19918;-66
2022/05/11 10:49:43;;;;;;;;;;;24.90;48.10;;;;;;4956730;29;19910;-62
2022/05/11 10:52:27;;;;;;;;;;;25.00;48.60;;;;;;4957087;29;19962;-60
2022/05/11 10:55:11;;;;;;;;;;;24.90;46.80;;;;;;4956728;29;20320;-65
2022/05/11 10:57:54;;;;;;;;;;;24.90;48.00;;;;;;4956704;29;19910;-66
2022/05/11 11:00:24;;;;;;;;;;;24.90;48.40;;;;;;4956295;29;19918;-66
2022/05/11 11:03:05;;;;;;;;;;;24.80;47.60;;;;;;4956434;29;19911;-68
2022/05/11 11:05:33;;;;;;;;;;;24.80;47.70;;;;;;4956235;29;20008;-68
2022/05/11 11:07:59;;;;;;;;;;;24.80;47.80;;;;;;4956516;29;20306;-63
2022/05/11 11:10:27;;;;;;;;;;;24.80;47.80;;;;;;4956144;29;19911;-60
2022/05/11 11:12:58;;;;;;;;;;;24.70;48.60;;;;;;4956391;29;19993;-59
2022/05/11 11:15:26;;;;;;;;;;;24.70;48.40;;;;;;4956012;29;19910;-59
2022/05/11 11:17:53;;;;;;;;;;;24.80;47.00;;;;;;4956317;29;19910;-59
2022/05/11 11:20:19;;;;;;;;;;;24.70;48.40;;;;;;4956232;29;20438;-59
2022/05/11 11:22:59;;;;;;;;;;;24.70;46.80;;;;;;4956195;29;19911;-61
2022/05/11 11:25:25;;;;;;;;;;;24.60;47.00;;;;;;4958150;29;20012;-61
2022/05/11 11:28:02;;;;;;;;;;;24.60;46.30;;;;;;4956603;29;19952;-60
2022/05/11 11:30:55;;;;;;;;;;;24.70;46.30;;;;;;4956046;29;19911;-61
2022/05/11 11:33:23;;;;;;;;;;;24.70;47.70;;;;;;4955553;29;20058;-60
2022/05/11 11:35:54;;;;;;;;;;;24.70;47.10;;;;;;4955777;29;19934;-60
2022/05/11 11:38:24;;;;;;;;;;;24.70;46.10;;;;;;4955028;29;20467;-60
2022/05/11 11:41:08;;;;;;;;;;;24.70;45.70;;;;;;4955749;29;20009;-60
2022/05/11 11:43:53;;;;;;;;;;;24.70;44.80;;;;;;4955418;29;19919;-60
2022/05/11 11:46:32;;;;;;;;;;;24.80;46.80;;;;;;4955246;29;20013;-61
2022/05/11 11:49:10;;;;;;;;;;;24.80;45.70;;;;;;4955860;29;20052;-59
2022/05/11 11:51:51;;;;;;;;;;;24.80;44.70;;;;;;4938835;29;19917;-62
2022/05/11 11:54:36;;;;;;;;;;;24.80;45.00;;;;;;4955423;29;19934;-60
2022/05/11 11:57:03;;;;;;;;;;;24.80;44.60;;;;;;4955361;29;20366;-66
2022/05/11 11:59:28;;;;;;;;;;;24.90;43.90;;;;;;4955371;29;19915;-60
2022/05/11 12:01:59;;;;;;;;;;;24.90;43.80;;;;;;4955604;29;19917;-61
2022/05/11 12:04:29;;;;;;;;;;;24.90;42.90;;;;;;4955326;29;19911;-63
2022/05/11 12:18:26;;;;;;;;;;;24.90;41.70;;;;;;4955191;29;20092;-66
2022/05/11 12:20:53;;;;;;;;;;;24.80;41.90;;;;;;4955479;29;20329;-67
2022/05/11 12:23:20;;;;;;;;;;;24.80;41.80;;;;;;4955092;29;19945;-66
2022/05/11 12:25:53;;;;;;;;;;;24.80;42.10;;;;;;4954943;29;20004;-67
2022/05/11 12:28:24;;;;;;;;;;;24.80;42.00;;;;;;4954899;29;19926;-63
2022/05/11 12:30:49;;;;;;;;;;;24.80;42.50;;;;;;4955186;29;19911;-66
2022/05/11 12:33:19;;;;;;;;;;;24.90;42.40;;;;;;4955014;29;19918;-64
2022/05/11 12:35:54;;;;;;;;;;;24.90;43.20;;;;;;4954979;29;19952;-68
2022/05/11 12:38:29;;;;;;;;;;;24.90;43.00;;;;;;4934381;29;19927;-68
2022/05/11 12:40:55;;;;;;;;;;;24.90;41.40;;;;;;4935945;29;20339;-66
2022/05/11 12:46:24;;;;;;;;;;;24.90;41.40;;;;;;4935974;29;19926;-60
2022/05/11 12:48:52;;;;;;;;;;;24.80;42.40;;;;;;4935829;29;19911;-61
2022/05/11 12:51:23;;;;;;;;;;;24.80;42.20;;;;;;4935894;29;20371;-61
2022/05/11 12:53:50;;;;;;;;;;;24.90;42.40;;;;;;4935708;29;19998;-60
2022/05/11 12:56:21;;;;;;;;;;;24.90;42.10;;;;;;4936147;29;19933;-65
2022/05/11 12:58:57;;;;;;;;;;;24.90;42.10;;;;;;4935599;29;19911;-64
2022/05/11 13:01:24;;;;;;;;;;;24.90;41.90;;;;;;4935871;29;19911;-61
2022/05/11 13:03:50;;;;;;;;;;;25.00;40.10;;;;;;4935838;29;19982;-61
2022/05/11 13:06:22;;;;;;;;;;;24.90;40.30;;;;;;4935931;29;20351;-63
2022/05/11 13:08:49;;;;;;;;;;;24.90;39.60;;;;;;4939352;29;19917;-62
2022/05/11 13:11:16;;;;;;;;;;;24.90;40.70;;;;;;4938683;29;19911;-63
2022/05/11 13:13:42;;;;;;;;;;;24.90;40.30;;;;;;4939155;29;20342;-61
2022/05/11 13:16:20;;;;;;;;;;;24.90;39.60;;;;;;4937826;29;19915;-61
2022/05/11 13:18:46;;;;;;;;;;;24.90;39.90;;;;;;4939335;29;19910;-67
2022/05/11 13:21:11;;;;;;;;;;;24.90;40.20;;;;;;4938633;29;19953;-60
2022/05/11 13:23:41;;;;;;;;;;;25.00;41.00;;;;;;4938841;29;19934;-60
2022/05/11 13:26:11;;;;;;;;;;;25.00;40.20;;;;;;4939070;29;19998;-64
2022/05/11 13:28:53;;;;;;;;;;;25.00;40.30;;;;;;4938912;29;19911;-64
2022/05/11 13:36:28;;;;;;;;;;;25.10;39.40;;;;;;4954286;29;19977;-63
2022/05/11 13:39:16;;;;;;;;;;;25.10;39.10;;;;;;4957767;29;19938;-63
2022/05/11 13:41:45;;;;;;;;;;;25.10;38.40;;;;;;4949950;29;19926;-71
2022/05/11 13:44:13;;;;;;;;;;;25.10;38.90;;;;;;4957591;29;19959;-69
2022/05/11 13:49:30;;;;;;;;;;;25.00;39.60;;;;;;4957992;28;20022;-69
2022/05/11 13:51:56;;;;;;;;;;;25.00;40.90;;;;;;4957721;29;20318;-70
2022/05/11 13:54:22;;;;;;;;;;;25.10;39.90;;;;;;4957640;29;19930;-70
2022/05/11 13:56:58;;;;;;;;;;;25.10;39.60;;;;;;4957608;28;20269;-68
2022/05/11 13:59:24;;;;;;;;;;;25.00;41.40;;;;;;4957501;29;19917;-70
2022/05/11 14:01:49;;;;;;;;;;;25.10;42.00;;;;;;4957427;29;20361;-70
2022/05/11 14:04:26;;;;;;;;;;;25.10;44.10;;;;;;4957284;28;20010;-69
2022/05/11 14:07:01;;;;;;;;;;;25.30;41.80;;;;;;4957441;29;19966;-71
2022/05/11 14:09:27;;;;;;;;;;;25.60;40.80;;;;;;4957345;28;19921;-69
2022/05/11 14:11:53;;;;;;;;;;;25.60;38.40;;;;;;4957053;29;20006;-72
2022/05/11 14:14:18;;;;;;;;;;;25.80;39.50;;;;;;4957253;29;19955;-70
2022/05/11 14:16:44;;;;;;;;;;;25.60;37.80;;;;;;4957045;28;19911;-69
2022/05/11 14:19:10;;;;;;;;;;;25.70;37.70;;;;;;4957138;28;19911;-72
2022/05/11 14:21:37;;;;;;;;;;;25.60;37.50;;;;;;4957415;29;20013;-70
2022/05/11 14:24:03;;;;;;;;;;;25.90;37.80;;;;;;4957448;29;19910;-70
2022/05/11 14:26:29;;;;;;;;;;;26.00;37.50;;;;;;4957134;29;19942;-68
2022/05/11 14:28:54;;;;;;;;;;;26.10;37.40;;;;;;4956739;29;19910;-70
2022/05/11 14:31:20;;;;;;;;;;;26.10;36.80;;;;;;4955376;29;19953;-66
2022/05/11 14:33:46;;;;;;;;;;;26.10;37.40;;;;;;4956717;29;19914;-65
2022/05/11 14:36:12;;;;;;;;;;;26.00;36.20;;;;;;4939566;29;19929;-60
2022/05/11 14:38:38;;;;;;;;;;;25.70;36.70;;;;;;4939492;29;19911;-61
2022/05/11 14:41:04;;;;;;;;;;;25.60;43.10;;;;;;4957107;29;19918;-63
2022/05/11 14:43:30;;;;;;;;;;;25.60;39.00;;;;;;4956656;29;19922;-61
2022/05/11 14:45:57;;;;;;;;;;;25.50;39.40;;;;;;4955647;29;19911;-64
2022/05/11 14:48:27;;;;;;;;;;;25.70;42.50;;;;;;4956581;28;19954;-69
2022/05/11 14:50:53;;;;;;;;;;;25.80;39.10;;;;;;4939475;29;19932;-65
2022/05/11 14:53:19;;;;;;;;;;;25.80;39.00;;;;;;4956837;28;19911;-63
2022/05/11 14:55:44;;;;;;;;;;;25.70;41.70;;;;;;4955436;29;19934;-67
2022/05/11 15:03:38;;;;;;;;;;;25.60;46.70;;;;;;4956414;29;20404;-63
2022/05/11 15:06:03;;;;;;;;;;;25.90;45.30;;;;;;4956091;28;19946;-66
2022/05/11 15:08:29;;;;;;;;;;;26.00;40.60;;;;;;4956580;29;19918;-61
2022/05/11 15:13:39;;;;;;;;;;;26.30;45.50;;;;;;4958223;29;20013;-64
2022/05/11 15:16:05;;;;;;;;;;;26.20;45.20;;;;;;4959063;29;19950;-62
2022/05/11 15:18:30;;;;;;;;;;;26.30;45.10;;;;;;4957405;28;20354;-63
2022/05/11 15:20:56;;;;;;;;;;;26.10;39.10;;;;;;4956152;28;20362;-62
2022/05/11 15:23:22;;;;;;;;;;;26.00;41.60;;;;;;4955933;28;20282;-63
2022/05/11 15:25:48;;;;;;;;;;;26.10;41.80;;;;;;4956424;29;19911;-61
2022/05/11 15:28:14;;;;;;;;;;;26.00;39.40;;;;;;4955856;29;19926;-62
2022/05/11 15:30:41;;;;;;;;;;;26.10;42.20;;;;;;4955008;28;19939;-61
2022/05/11 15:33:09;;;;;;;;;;;26.20;42.10;;;;;;4938654;29;20346;-61